createdAt,value
2018-12-29T00:01:12.134Z,4.92
2018-12-29T00:03:41.473Z,4.92
2018-12-29T00:06:09.507Z,4.92
2018-12-29T00:08:37.896Z,4.93
2018-12-29T00:11:05.917Z,4.92
2018-12-29T00:13:33.942Z,4.93
2018-12-29T00:16:02.009Z,4.96
2018-12-29T00:18:31.286Z,4.97
2018-12-29T00:20:59.798Z,4.99
2018-12-29T00:23:27.804Z,4.99
2018-12-29T00:25:55.820Z,4.99
2018-12-29T00:28:23.911Z,5.00
2018-12-29T00:30:52.194Z,4.98
2018-12-29T00:33:20.181Z,4.95
2018-12-29T00:35:48.214Z,4.93
2018-12-29T00:38:16.709Z,4.92
2018-12-29T00:40:44.734Z,4.95
2018-12-29T00:43:12.815Z,4.97
2018-12-29T00:45:45.462Z,4.98
2018-12-29T00:48:13.490Z,5.00
2018-12-29T00:50:41.507Z,4.98
2018-12-29T00:53:09.480Z,4.99
2018-12-29T00:55:37.501Z,4.99
2018-12-29T00:58:07.207Z,5.00
2018-12-29T01:00:35.240Z,5.03
2018-12-29T01:03:03.549Z,5.04
2018-12-29T01:05:33.014Z,5.03
2018-12-29T01:08:01.514Z,5.01
2018-12-29T01:10:29.586Z,5.00
2018-12-29T01:12:57.689Z,4.94
2018-12-29T01:15:25.754Z,4.92
2018-12-29T01:17:53.664Z,4.93
2018-12-29T01:20:21.739Z,4.95
2018-12-29T01:22:49.742Z,4.97
2018-12-29T01:25:17.762Z,4.98
2018-12-29T01:27:45.839Z,4.95
2018-12-29T01:30:14.181Z,4.91
2018-12-29T01:32:42.190Z,4.90
2018-12-29T01:35:10.237Z,4.88
2018-12-29T01:37:38.293Z,4.91
2018-12-29T01:40:07.335Z,4.91
2018-12-29T01:42:35.309Z,4.92
2018-12-29T01:45:03.925Z,4.91
2018-12-29T01:47:31.943Z,4.91
2018-12-29T01:49:59.947Z,4.92
2018-12-29T01:52:27.977Z,4.95
2018-12-29T01:54:55.981Z,4.95
2018-12-29T01:57:24.011Z,4.98
2018-12-29T01:59:52.324Z,5.00
2018-12-29T02:02:20.647Z,5.02
2018-12-29T02:04:48.934Z,5.03
2018-12-29T02:07:17.379Z,5.06
2018-12-29T02:09:45.428Z,5.06
2018-12-29T02:12:14.572Z,5.07
2018-12-29T02:14:42.842Z,5.09
2018-12-29T02:17:10.896Z,5.08
2018-12-29T02:19:39.249Z,5.09
2018-12-29T02:22:07.277Z,5.11
2018-12-29T02:24:35.879Z,5.12
2018-12-29T02:27:03.920Z,5.07
2018-12-29T02:29:32.071Z,5.04
2018-12-29T02:32:00.107Z,5.00
2018-12-29T02:34:28.096Z,5.00
2018-12-29T02:36:56.114Z,4.97
2018-12-29T02:39:24.444Z,4.96
2018-12-29T02:41:52.716Z,4.96
2018-12-29T02:44:20.786Z,4.98
2018-12-29T02:46:49.349Z,5.00
2018-12-29T02:49:17.363Z,5.02
2018-12-29T02:51:45.743Z,5.04
2018-12-29T02:54:13.760Z,5.06
2018-12-29T02:56:41.790Z,5.04
2018-12-29T02:59:09.815Z,5.02
2018-12-29T03:01:39.055Z,5.02
2018-12-29T03:04:07.071Z,5.03
2018-12-29T03:06:35.085Z,5.03
2018-12-29T03:09:04.975Z,5.02
2018-12-29T03:11:34.117Z,4.99
2018-12-29T03:14:02.130Z,4.96
2018-12-29T03:16:30.695Z,4.96
2018-12-29T03:18:58.697Z,4.97
2018-12-29T03:21:26.749Z,4.97
2018-12-29T03:23:54.725Z,4.98
2018-12-29T03:26:22.696Z,5.00
2018-12-29T03:28:50.735Z,5.03
2018-12-29T03:31:20.063Z,5.03
2018-12-29T03:33:48.044Z,5.02
2018-12-29T03:36:16.021Z,5.03
2018-12-29T03:38:44.346Z,5.03
2018-12-29T03:41:12.335Z,5.03
2018-12-29T03:43:41.329Z,5.02
2018-12-29T03:46:09.331Z,5.03
2018-12-29T03:48:37.329Z,5.02
2018-12-29T03:51:05.310Z,5.04
2018-12-29T03:53:33.883Z,5.04
2018-12-29T03:56:02.295Z,5.04
2018-12-29T03:58:30.349Z,5.05
2018-12-29T04:00:58.377Z,5.04
2018-12-29T04:03:26.431Z,5.06
2018-12-29T04:05:54.354Z,5.06
2018-12-29T04:08:22.404Z,5.07
2018-12-29T04:10:50.762Z,5.08
2018-12-29T04:13:19.048Z,5.09
2018-12-29T04:15:47.040Z,5.10
2018-12-29T04:18:15.085Z,5.12
2018-12-29T04:20:43.101Z,5.12
2018-12-29T04:23:11.112Z,5.12
2018-12-29T04:25:39.122Z,5.13
2018-12-29T04:28:07.211Z,5.14
2018-12-29T04:30:35.227Z,5.16
2018-12-29T04:33:04.360Z,5.16
2018-12-29T04:35:34.061Z,5.17
2018-12-29T04:38:04.683Z,5.16
2018-12-29T04:40:32.693Z,5.15
2018-12-29T04:43:00.984Z,5.14
2018-12-29T04:45:28.970Z,5.15
2018-12-29T04:47:57.621Z,5.15
2018-12-29T04:50:25.909Z,5.16
2018-12-29T04:52:53.749Z,5.17
2018-12-29T04:55:21.754Z,5.18
2018-12-29T04:57:49.739Z,5.19
2018-12-29T05:00:17.753Z,5.18
2018-12-29T05:02:46.013Z,5.17
2018-12-29T05:05:14.331Z,5.18
2018-12-29T05:07:42.331Z,5.18
2018-12-29T05:10:10.361Z,5.18
2018-12-29T05:12:38.621Z,5.18
2018-12-29T05:15:06.682Z,5.16
2018-12-29T05:17:34.663Z,5.15
2018-12-29T05:20:03.229Z,5.14
2018-12-29T05:22:31.200Z,5.12
2018-12-29T05:24:59.206Z,5.10
2018-12-29T05:27:27.181Z,5.10
2018-12-29T05:29:55.217Z,5.09
2018-12-29T05:32:23.178Z,5.08
2018-12-29T05:34:51.292Z,5.07
2018-12-29T05:37:19.565Z,5.07
2018-12-29T05:39:47.559Z,5.08
2018-12-29T05:42:15.553Z,5.07
2018-12-29T05:44:43.565Z,5.08
2018-12-29T05:47:11.834Z,5.06
2018-12-29T05:49:39.855Z,5.06
2018-12-29T05:52:07.839Z,5.06
2018-12-29T05:54:35.854Z,5.05
2018-12-29T05:57:03.871Z,5.04
2018-12-29T05:59:31.884Z,5.05
2018-12-29T06:01:59.889Z,5.04
2018-12-29T06:04:27.909Z,5.02
2018-12-29T06:06:55.888Z,5.01
2018-12-29T06:09:23.900Z,5.01
2018-12-29T06:11:52.193Z,5.02
2018-12-29T06:14:20.168Z,5.02
2018-12-29T06:16:48.147Z,5.03
2018-12-29T06:19:16.477Z,5.04
2018-12-29T06:21:44.449Z,5.03
2018-12-29T06:24:12.543Z,5.02
2018-12-29T06:26:40.766Z,5.01
2018-12-29T06:29:09.004Z,4.96
2018-12-29T06:31:36.997Z,4.95
2018-12-29T06:34:05.010Z,4.93
2018-12-29T06:36:33.024Z,4.95
2018-12-29T06:39:04.192Z,4.95
2018-12-29T06:41:32.186Z,4.96
2018-12-29T06:44:00.212Z,4.91
2018-12-29T06:46:34.721Z,4.89
2018-12-29T06:48:58.559Z,4.89
2018-12-29T06:51:26.861Z,4.88
2018-12-29T06:53:55.148Z,4.88
2018-12-29T06:56:24.253Z,4.85
2018-12-29T06:58:53.269Z,4.83
2018-12-29T07:01:21.431Z,4.80
2018-12-29T07:03:49.741Z,4.76
2018-12-29T07:06:17.799Z,4.75
2018-12-29T07:08:45.815Z,4.74
2018-12-29T07:11:14.804Z,4.72
2018-12-29T07:13:42.954Z,4.69
2018-12-29T07:16:10.963Z,4.66
2018-12-29T07:18:38.985Z,4.64
2018-12-29T07:21:07.012Z,4.60
2018-12-29T07:23:34.986Z,4.60
2018-12-29T07:26:05.663Z,4.60
2018-12-29T07:28:33.717Z,4.61
2018-12-29T07:31:01.740Z,4.62
2018-12-29T07:33:30.882Z,4.59
2018-12-29T07:35:58.899Z,4.60
2018-12-29T07:38:26.941Z,4.58
2018-12-29T07:40:54.905Z,4.58
2018-12-29T07:43:22.918Z,4.58
2018-12-29T07:45:50.922Z,4.59
2018-12-29T07:48:19.305Z,4.60
2018-12-29T07:50:47.326Z,4.61
2018-12-29T07:53:15.335Z,4.61
2018-12-29T07:55:44.302Z,4.61
2018-12-29T07:58:12.312Z,4.62
2018-12-29T08:00:40.313Z,4.64
2018-12-29T08:03:08.589Z,4.66
2018-12-29T08:05:36.616Z,4.70
2018-12-29T08:08:05.058Z,4.72
2018-12-29T08:10:33.042Z,4.73
2018-12-29T08:13:01.354Z,4.76
2018-12-29T08:15:29.619Z,4.78
2018-12-29T08:17:57.613Z,4.80
2018-12-29T08:20:25.609Z,4.81
2018-12-29T08:22:53.887Z,4.80
2018-12-29T08:25:21.869Z,4.82
2018-12-29T08:27:50.173Z,4.84
2018-12-29T08:30:18.186Z,4.85
2018-12-29T08:32:46.236Z,4.88
2018-12-29T08:35:14.253Z,4.91
2018-12-29T08:37:42.502Z,4.92
2018-12-29T08:40:10.547Z,4.92
2018-12-29T08:42:38.800Z,4.91
2018-12-29T08:45:06.824Z,4.89
2018-12-29T08:47:34.850Z,4.90
2018-12-29T08:50:04.151Z,4.91
2018-12-29T08:52:33.171Z,4.95
2018-12-29T08:55:01.290Z,4.96
2018-12-29T08:57:29.314Z,4.99
2018-12-29T08:59:57.718Z,5.02
2018-12-29T09:02:25.707Z,5.06
2018-12-29T09:04:53.716Z,5.07
2018-12-29T09:07:21.785Z,5.11
2018-12-29T09:09:49.860Z,5.18
2018-12-29T09:12:18.158Z,5.26
2018-12-29T09:14:46.180Z,5.32
2018-12-29T09:17:14.188Z,5.36
2018-12-29T09:19:42.174Z,5.44
2018-12-29T09:22:10.182Z,5.51
2018-12-29T09:24:38.206Z,5.59
2018-12-29T09:27:06.302Z,5.68
2018-12-29T09:29:34.641Z,5.75
2018-12-29T09:32:03.539Z,5.82
2018-12-29T09:34:31.855Z,5.88
2018-12-29T09:36:59.918Z,5.93
2018-12-29T09:39:28.006Z,5.99
2018-12-29T09:41:55.999Z,6.06
2018-12-29T09:44:24.174Z,6.14
2018-12-29T09:46:52.222Z,6.19
2018-12-29T09:49:20.281Z,6.16
2018-12-29T09:51:48.436Z,6.09
2018-12-29T09:54:16.446Z,6.09
2018-12-29T09:56:44.808Z,6.12
2018-12-29T09:59:13.263Z,6.10
2018-12-29T10:01:41.302Z,6.10
2018-12-29T10:04:09.316Z,6.11
2018-12-29T10:06:37.354Z,6.13
2018-12-29T10:09:06.468Z,6.11
2018-12-29T10:11:34.472Z,6.11
2018-12-29T10:14:02.465Z,6.17
2018-12-29T10:16:30.473Z,6.19
2018-12-29T10:18:58.455Z,6.16
2018-12-29T10:21:26.469Z,6.16
2018-12-29T10:23:54.590Z,6.21
2018-12-29T10:26:22.608Z,6.25
2018-12-29T10:28:50.652Z,6.31
2018-12-29T10:31:18.642Z,6.31
2018-12-29T10:33:46.628Z,6.32
2018-12-29T10:36:14.724Z,6.31
2018-12-29T10:38:43.021Z,6.38
2018-12-29T10:41:11.310Z,6.40
2018-12-29T10:43:41.202Z,6.42
2018-12-29T10:46:09.407Z,6.45
2018-12-29T10:48:40.537Z,6.45
2018-12-29T10:51:08.854Z,6.45
2018-12-29T10:53:40.371Z,6.42
2018-12-29T10:56:08.832Z,6.44
2018-12-29T10:58:37.167Z,6.49
2018-12-29T11:01:05.734Z,6.51
2018-12-29T11:03:35.533Z,6.52
2018-12-29T11:06:04.312Z,6.56
2018-12-29T11:08:33.025Z,6.63
2018-12-29T11:11:01.335Z,6.57
2018-12-29T11:13:29.607Z,6.58
2018-12-29T11:15:57.882Z,6.58
2018-12-29T11:18:25.840Z,6.61
2018-12-29T11:20:54.055Z,6.60
2018-12-29T11:23:22.328Z,6.58
2018-12-29T11:25:50.418Z,6.61
2018-12-29T11:28:18.670Z,6.58
2018-12-29T11:30:47.685Z,6.56
2018-12-29T11:33:15.793Z,6.56
2018-12-29T11:35:43.891Z,6.56
2018-12-29T11:38:11.860Z,6.53
2018-12-29T11:40:39.965Z,6.56
2018-12-29T11:43:08.626Z,6.57
2018-12-29T11:45:36.683Z,6.61
2018-12-29T11:48:05.392Z,6.65
2018-12-29T11:50:33.411Z,6.66
2018-12-29T11:53:01.553Z,6.65
2018-12-29T11:55:29.698Z,6.65
2018-12-29T11:57:58.474Z,6.66
2018-12-29T12:00:26.659Z,6.67
2018-12-29T12:02:56.055Z,6.67
2018-12-29T12:05:24.118Z,6.65
2018-12-29T12:07:52.515Z,6.63
2018-12-29T12:10:21.354Z,6.63
2018-12-29T12:12:49.466Z,6.59
2018-12-29T12:15:17.487Z,6.55
2018-12-29T12:17:45.895Z,6.51
2018-12-29T12:20:13.893Z,6.47
2018-12-29T12:22:42.130Z,6.48
2018-12-29T12:25:10.170Z,6.51
2018-12-29T12:27:38.378Z,6.53
2018-12-29T12:30:07.502Z,6.53
2018-12-29T12:32:35.966Z,6.55
2018-12-29T12:35:04.422Z,6.60
2018-12-29T12:37:32.599Z,6.66
2018-12-29T12:40:01.190Z,6.67
2018-12-29T12:42:29.247Z,6.66
2018-12-29T12:44:57.331Z,6.67
2018-12-29T12:47:25.342Z,6.68
2018-12-29T12:49:53.419Z,6.70
2018-12-29T12:52:22.007Z,6.70
2018-12-29T12:54:51.067Z,6.71
2018-12-29T12:57:19.467Z,6.74
2018-12-29T12:59:47.915Z,6.78
2018-12-29T13:02:15.978Z,6.79
2018-12-29T13:04:44.121Z,6.78
2018-12-29T13:07:12.266Z,6.77
2018-12-29T13:09:40.476Z,6.74
2018-12-29T13:12:08.649Z,6.67
2018-12-29T13:14:36.705Z,6.64
2018-12-29T13:17:05.035Z,6.60
2018-12-29T13:19:33.451Z,6.56
2018-12-29T13:22:01.453Z,6.58
2018-12-29T13:24:29.318Z,6.61
2018-12-29T13:26:57.393Z,6.55
2018-12-29T13:29:25.604Z,6.46
2018-12-29T13:31:53.957Z,6.42
2018-12-29T13:34:22.231Z,6.40
2018-12-29T13:36:50.312Z,6.40
2018-12-29T13:39:18.328Z,6.42
2018-12-29T13:41:46.337Z,6.37
2018-12-29T13:44:15.235Z,6.35
2018-12-29T13:46:43.234Z,6.35
2018-12-29T13:49:11.235Z,6.35
2018-12-29T13:51:39.370Z,6.34
2018-12-29T13:54:08.018Z,6.37
2018-12-29T13:56:36.116Z,6.37
2018-12-29T13:59:04.268Z,6.34
2018-12-29T14:01:32.439Z,6.32
2018-12-29T14:04:00.754Z,6.35
2018-12-29T14:06:28.756Z,6.45
2018-12-29T14:08:57.065Z,6.60
2018-12-29T14:11:25.210Z,6.73
2018-12-29T14:13:53.238Z,6.85
2018-12-29T14:16:21.300Z,6.94
2018-12-29T14:18:49.438Z,7.03
2018-12-29T14:21:17.567Z,7.17
2018-12-29T14:23:45.663Z,7.25
2018-12-29T14:26:13.649Z,7.28
2018-12-29T14:28:41.794Z,7.35
2018-12-29T14:31:09.792Z,7.42
2018-12-29T14:33:37.852Z,7.41
2018-12-29T14:36:06.481Z,7.34
2018-12-29T14:38:34.515Z,7.32
2018-12-29T14:41:02.494Z,7.27
2018-12-29T14:45:58.224Z,7.26
2018-12-29T14:48:26.609Z,7.25
2018-12-29T14:50:54.576Z,7.21
2018-12-29T14:53:22.641Z,7.22
2018-12-29T14:55:50.665Z,7.21
2018-12-29T14:58:18.831Z,7.17
2018-12-29T15:00:47.596Z,7.16
2018-12-29T15:03:15.783Z,7.10
2018-12-29T15:05:43.927Z,6.98
2018-12-29T15:08:12.065Z,6.87
2018-12-29T15:10:40.150Z,6.79
2018-12-29T15:13:08.947Z,6.73
2018-12-29T15:15:37.584Z,6.69
2018-12-29T15:18:07.731Z,6.63
2018-12-29T15:20:36.483Z,6.62
2018-12-29T15:23:05.068Z,6.61
2018-12-29T15:25:33.950Z,6.59
2018-12-29T15:28:01.971Z,6.56
2018-12-29T15:30:30.022Z,6.54
2018-12-29T15:32:58.039Z,6.48
2018-12-29T15:35:26.160Z,6.38
2018-12-29T15:37:54.526Z,6.32
2018-12-29T15:40:22.560Z,6.23
2018-12-29T15:42:51.829Z,6.15
2018-12-29T15:45:20.456Z,6.02
2018-12-29T15:47:48.560Z,5.88
2018-12-29T15:50:16.595Z,5.80
2018-12-29T15:52:44.640Z,5.70
2018-12-29T15:55:12.740Z,5.61
2018-12-29T15:57:40.771Z,5.53
2018-12-29T16:00:09.026Z,5.46
2018-12-29T16:02:37.128Z,5.37
2018-12-29T16:05:05.349Z,5.27
2018-12-29T16:07:33.779Z,5.20
2018-12-29T16:10:01.812Z,5.16
2018-12-29T16:12:30.272Z,5.12
2018-12-29T16:14:58.549Z,5.08
2018-12-29T16:17:26.573Z,5.06
2018-12-29T16:19:55.199Z,4.99
2018-12-29T16:22:23.170Z,4.93
2018-12-29T16:24:51.202Z,4.85
2018-12-29T16:27:19.609Z,4.75
2018-12-29T16:29:47.625Z,4.73
2018-12-29T16:32:15.703Z,4.64
2018-12-29T16:34:43.816Z,4.59
2018-12-29T16:37:11.918Z,4.56
2018-12-29T16:39:40.530Z,4.57
2018-12-29T16:42:09.248Z,4.63
2018-12-29T16:44:37.627Z,4.65
2018-12-29T16:47:05.831Z,4.70
2018-12-29T16:49:34.391Z,4.74
2018-12-29T16:52:02.501Z,4.77
2018-12-29T16:54:30.689Z,4.81
2018-12-29T16:56:58.838Z,4.83
2018-12-29T16:59:27.319Z,4.84
2018-12-29T17:01:55.598Z,4.88
2018-12-29T17:04:23.925Z,4.88
2018-12-29T17:06:51.912Z,4.89
2018-12-29T17:09:20.713Z,4.89
2018-12-29T17:11:52.465Z,4.91
2018-12-29T17:14:18.885Z,4.92
2018-12-29T17:16:46.963Z,4.92
2018-12-29T17:19:15.118Z,4.90
2018-12-29T17:21:43.438Z,4.91
2018-12-29T17:24:11.918Z,4.93
2018-12-29T17:26:40.137Z,4.97
2018-12-29T17:29:08.295Z,4.99
2018-12-29T17:31:36.634Z,4.99
2018-12-29T17:34:04.708Z,4.97
2018-12-29T17:36:32.748Z,4.98
2018-12-29T17:39:01.113Z,4.98
2018-12-29T17:41:29.320Z,4.99
2018-12-29T17:43:57.465Z,4.99
2018-12-29T17:46:25.908Z,5.00
2018-12-29T17:48:54.375Z,4.98
2018-12-29T17:51:22.649Z,4.95
2018-12-29T17:53:50.929Z,4.92
2018-12-29T17:56:19.275Z,4.89
2018-12-29T17:58:47.276Z,4.84
2018-12-29T18:01:15.626Z,4.82
2018-12-29T18:03:44.305Z,4.82
2018-12-29T18:06:12.349Z,4.83
2018-12-29T18:08:41.826Z,4.82
2018-12-29T18:11:10.115Z,4.84
2018-12-29T18:13:38.653Z,4.83
2018-12-29T18:16:06.756Z,4.84
2018-12-29T18:18:35.424Z,4.86
2018-12-29T18:21:03.822Z,4.87
2018-12-29T18:23:32.503Z,4.87
2018-12-29T18:26:00.646Z,4.85
2018-12-29T18:28:29.392Z,4.83
2018-12-29T18:30:57.643Z,4.81
2018-12-29T18:33:26.515Z,4.77
2018-12-29T18:35:54.924Z,4.75
2018-12-29T18:38:23.137Z,4.75
2018-12-29T18:40:51.802Z,4.73
2018-12-29T18:43:19.845Z,4.73
2018-12-29T18:45:47.897Z,4.74
2018-12-29T18:48:15.958Z,4.73
2018-12-29T18:50:44.497Z,4.73
2018-12-29T18:53:12.599Z,4.73
2018-12-29T18:55:40.726Z,4.74
2018-12-29T18:58:11.002Z,4.75
2018-12-29T19:00:39.167Z,4.76
2018-12-29T19:03:07.271Z,4.77
2018-12-29T19:05:35.376Z,4.82
2018-12-29T19:08:03.853Z,4.85
2018-12-29T19:10:32.162Z,4.89
2018-12-29T19:13:00.358Z,4.90
2018-12-29T19:15:28.539Z,4.93
2018-12-29T19:17:57.092Z,4.96
2018-12-29T19:20:26.010Z,5.01
2018-12-29T19:22:54.041Z,5.02
2018-12-29T19:25:22.071Z,5.03
2018-12-29T19:27:50.100Z,5.02
2018-12-29T19:30:18.615Z,5.03
2018-12-29T19:32:47.123Z,5.03
2018-12-29T19:35:15.367Z,5.03
2018-12-29T19:37:44.007Z,5.03
2018-12-29T19:40:12.163Z,5.06
2018-12-29T19:42:40.902Z,5.07
2018-12-29T19:45:09.039Z,5.09
2018-12-29T19:47:37.116Z,5.10
2018-12-29T19:50:05.703Z,5.06
2018-12-29T19:52:33.983Z,5.07
2018-12-29T19:55:01.968Z,5.10
2018-12-29T19:57:31.114Z,5.10
2018-12-29T19:59:59.214Z,5.10
2018-12-29T20:02:27.732Z,5.11
2018-12-29T20:04:56.138Z,5.11
2018-12-29T20:07:24.492Z,5.06
2018-12-29T20:09:52.673Z,5.05
2018-12-29T20:12:20.930Z,5.04
2018-12-29T20:14:49.114Z,5.03
2018-12-29T20:17:17.686Z,5.00
2018-12-29T20:19:45.754Z,5.00
2018-12-29T20:22:15.509Z,5.01
2018-12-29T20:24:46.493Z,4.98
2018-12-29T20:27:14.883Z,4.96
2018-12-29T20:29:43.085Z,4.95
2018-12-29T20:32:11.710Z,4.93
2018-12-29T20:34:40.239Z,4.94
2018-12-29T20:37:08.910Z,4.93
2018-12-29T20:39:36.967Z,4.95
2018-12-29T20:42:05.193Z,4.96
2018-12-29T20:44:33.347Z,4.96
2018-12-29T20:47:01.769Z,4.98
2018-12-29T20:49:30.396Z,4.99
2018-12-29T20:51:58.616Z,5.01
2018-12-29T20:54:26.847Z,5.03
2018-12-29T20:56:54.981Z,5.04
2018-12-29T20:59:23.405Z,5.05
2018-12-29T21:01:51.917Z,5.02
2018-12-29T21:04:20.056Z,5.01
2018-12-29T21:06:48.126Z,5.00
2018-12-29T21:09:16.590Z,4.99
2018-12-29T21:11:44.683Z,5.01
2018-12-29T21:14:13.192Z,4.98
2018-12-29T21:16:41.559Z,4.98
2018-12-29T21:19:09.614Z,4.96
2018-12-29T21:21:37.780Z,4.97
2018-12-29T21:24:12.224Z,4.99
2018-12-29T21:26:37.071Z,4.98
2018-12-29T21:29:06.443Z,4.98
2018-12-29T21:31:34.429Z,4.98
2018-12-29T21:34:02.862Z,4.97
2018-12-29T21:36:30.928Z,4.94
2018-12-29T21:38:58.959Z,4.93
2018-12-29T21:41:27.310Z,4.93
2018-12-29T21:43:55.295Z,4.97
2018-12-29T21:46:23.840Z,4.96
2018-12-29T21:48:51.992Z,4.95
2018-12-29T21:51:20.065Z,4.96
2018-12-29T21:53:48.123Z,4.94
2018-12-29T21:56:16.672Z,4.98
2018-12-29T21:58:45.138Z,4.99
2018-12-29T22:01:13.803Z,5.02
2018-12-29T22:03:42.179Z,5.02
2018-12-29T22:06:11.529Z,5.04
2018-12-29T22:08:39.874Z,5.02
2018-12-29T22:11:09.466Z,5.02
2018-12-29T22:13:37.681Z,5.00
2018-12-29T22:16:07.466Z,5.01
2018-12-29T22:18:37.839Z,5.00
2018-12-29T22:21:05.953Z,4.99
2018-12-29T22:23:34.698Z,4.99
2018-12-29T22:26:02.801Z,4.96
2018-12-29T22:28:30.864Z,4.93
2018-12-29T22:30:58.909Z,4.87
2018-12-29T22:33:26.928Z,4.85
2018-12-29T22:35:54.991Z,4.77
2018-12-29T22:38:24.253Z,4.72
2018-12-29T22:40:53.433Z,4.69
2018-12-29T22:43:21.855Z,4.69
2018-12-29T22:45:49.971Z,4.64
2018-12-29T22:48:17.956Z,4.61
2018-12-29T22:50:46.287Z,4.60
2018-12-29T22:53:14.286Z,4.58
2018-12-29T22:55:42.338Z,4.56
2018-12-29T22:58:11.941Z,4.50
2018-12-29T23:00:42.962Z,4.49
2018-12-29T23:03:12.045Z,4.51
2018-12-29T23:05:40.128Z,4.49
2018-12-29T23:08:08.232Z,4.49
2018-12-29T23:10:37.766Z,4.48
2018-12-29T23:13:06.092Z,4.47
2018-12-29T23:15:34.201Z,4.48
2018-12-29T23:18:02.210Z,4.49
2018-12-29T23:20:30.867Z,4.47
2018-12-29T23:22:58.897Z,4.48
2018-12-29T23:25:27.246Z,4.48
2018-12-29T23:27:55.250Z,4.48
2018-12-29T23:30:23.314Z,4.48
2018-12-29T23:32:51.897Z,4.51
2018-12-29T23:35:20.234Z,4.53
2018-12-29T23:37:48.278Z,4.56
2018-12-29T23:40:16.316Z,4.57
2018-12-29T23:42:44.453Z,4.60
2018-12-29T23:45:12.619Z,4.62
2018-12-29T23:47:40.942Z,4.65
2018-12-29T23:50:09.838Z,4.67
2018-12-29T23:52:38.265Z,4.67
2018-12-29T23:55:06.436Z,4.69
2018-12-29T23:57:34.865Z,4.71
